Time;durP1;ratioP1;P1;durP2;ratioP2;P2;SDS_P1;SDS_P2;PMS_P1;PMS_P2;Temp;Humidity;BMP_temperature;BMP_pressure;BME280_temperature;BME280_humidity;BME280_pressure;Samples;Min_cycle;Max_cycle;Signal;HPM_P1;HPM_P2
2023/07/01 00:00:37;;;;;;;5.53;1.80;;;18.10;99.90;;;;;;1922794;73;21133;-85
2023/07/01 00:03:30;;;;;;;3.50;1.75;;;18.10;99.90;;;;;;1922522;73;21158;-85
2023/07/01 00:06:21;;;;;;;4.42;1.90;;;18.00;99.90;;;;;;1938801;73;21129;-87
2023/07/01 00:09:13;;;;;;;5.17;1.80;;;18.00;99.90;;;;;;1940557;73;21090;-85
2023/07/01 00:12:05;;;;;;;4.83;1.87;;;18.00;99.90;;;;;;1931240;73;21086;-85
2023/07/01 00:14:57;;;;;;;3.10;2.17;;;18.00;99.90;;;;;;1919582;73;21076;-86
2023/07/01 00:17:49;;;;;;;2.27;1.80;;;18.00;99.90;;;;;;1917102;73;21256;-86
2023/07/01 00:23:21;;;;;;;2.10;1.82;;;18.10;99.90;;;;;;1943563;72;22173;-85
2023/07/01 00:26:12;;;;;;;3.60;1.82;;;18.20;99.90;;;;;;1910552;75;21089;-85
2023/07/01 00:29:04;;;;;;;4.08;1.85;;;18.20;99.90;;;;;;1911296;75;21087;-85
2023/07/01 00:31:56;;;;;;;3.12;2.17;;;18.20;99.90;;;;;;1916884;75;21160;-85
2023/07/01 00:34:47;;;;;;;5.28;1.92;;;18.20;99.90;;;;;;1916019;75;21644;-85
2023/07/01 00:37:38;;;;;;;2.37;1.90;;;18.20;99.90;;;;;;1909598;75;21096;-85
2023/07/01 00:40:30;;;;;;;2.22;1.98;;;18.20;99.90;;;;;;1894731;74;21147;-85
2023/07/01 00:43:22;;;;;;;2.52;1.57;;;18.20;99.90;;;;;;1902883;75;21098;-85
2023/07/01 00:46:14;;;;;;;3.22;1.92;;;18.20;99.90;;;;;;1907145;75;21574;-85
2023/07/01 00:49:05;;;;;;;2.72;1.90;;;18.20;99.90;;;;;;1916976;75;21143;-85
2023/07/01 00:51:58;;;;;;;2.42;1.82;;;18.20;99.90;;;;;;1917149;74;21097;-85
2023/07/01 00:54:50;;;;;;;2.37;1.62;;;18.20;99.90;;;;;;1915272;74;21154;-86
2023/07/01 00:57:42;;;;;;;2.85;1.90;;;18.20;99.90;;;;;;1915059;75;21161;-85
2023/07/01 01:00:34;;;;;;;4.03;1.72;;;18.20;99.90;;;;;;1896736;75;22005;-86
2023/07/01 01:03:28;;;;;;;3.02;1.82;;;18.20;99.90;;;;;;1914783;75;21149;-86
2023/07/01 01:06:24;;;;;;;3.77;1.98;;;18.20;99.90;;;;;;1905117;75;21527;-86
2023/07/01 01:12:00;;;;;;;2.33;1.60;;;18.20;99.90;;;;;;1952162;72;22288;-85
2023/07/01 01:17:37;;;;;;;1.70;1.40;;;18.20;99.90;;;;;;1933807;72;22190;-88
2023/07/01 01:23:20;;;;;;;3.70;1.70;;;18.20;99.90;;;;;;1941270;72;22200;-86
2023/07/01 01:26:16;;;;;;;3.65;1.50;;;18.20;99.90;;;;;;1904482;75;21133;-86
2023/07/01 01:37:12;;;;;;;3.80;2.20;;;17.90;99.90;;;;;;1949295;72;22168;-85
2023/07/01 01:40:09;;;;;;;3.58;1.82;;;17.90;99.90;;;;;;1904607;75;21130;-85
2023/07/01 01:43:06;;;;;;;3.90;1.82;;;17.90;99.90;;;;;;1921991;74;21098;-87
2023/07/01 01:45:58;;;;;;;4.15;2.15;;;17.80;99.90;;;;;;1904905;75;21140;-86
2023/07/01 01:51:31;;;;;;;4.10;2.08;;;17.80;99.90;;;;;;1936231;72;22197;-86
2023/07/01 01:54:24;;;;;;;4.22;2.20;;;17.80;99.90;;;;;;1885588;75;21122;-85
2023/07/01 01:57:16;;;;;;;5.75;2.02;;;17.80;99.90;;;;;;1916408;75;21100;-86
2023/07/01 02:00:13;;;;;;;3.25;1.67;;;17.90;99.90;;;;;;1903174;75;21172;-85
2023/07/01 02:03:05;;;;;;;3.50;1.60;;;17.90;99.90;;;;;;1910019;74;21167;-86
2023/07/01 02:05:57;;;;;;;4.37;1.52;;;17.90;99.90;;;;;;1904900;75;21123;-86
2023/07/01 02:08:48;;;;;;;2.83;1.50;;;18.00;99.90;;;;;;1904369;75;21066;-86
2023/07/01 02:11:40;;;;;;;3.27;1.80;;;18.00;99.90;;;;;;1909641;75;21147;-86
2023/07/01 02:17:15;;;;;;;6.33;1.92;;;17.90;99.90;;;;;;1929320;72;22276;-85
2023/07/01 02:22:48;;;;;;;2.70;1.70;;;17.90;99.90;;;;;;1933156;72;22228;-85
2023/07/01 02:28:18;;;;;;;8.58;2.02;;;17.80;99.90;;;;;;1915095;72;22641;-87
2023/07/01 02:33:48;;;;;;;2.25;0.98;;;17.80;99.90;;;;;;1934100;72;22173;-84
2023/07/01 02:41:57;;;;;;;2.12;1.02;;;18.10;99.90;;;;;;1953233;72;22240;-84
2023/07/01 02:47:28;;;;;;;1.07;0.85;;;18.10;99.90;;;;;;1922021;72;22258;-84
2023/07/01 02:52:58;;;;;;;1.52;0.80;;;18.10;99.90;;;;;;1936451;72;22205;-84
2023/07/01 02:55:50;;;;;;;2.60;1.20;;;18.10;99.90;;;;;;1910103;75;21144;-85
2023/07/01 02:58:44;;;;;;;3.05;1.00;;;18.10;99.90;;;;;;1914593;75;21078;-86
2023/07/01 03:01:36;;;;;;;1.37;0.90;;;18.00;99.90;;;;;;1909965;75;21087;-86
2023/07/01 03:07:07;;;;;;;1.90;0.82;;;18.10;99.90;;;;;;1948415;72;22311;-85
2023/07/01 03:09:58;;;;;;;1.42;1.00;;;18.10;99.90;;;;;;1917209;75;21151;-85
2023/07/01 03:12:50;;;;;;;1.47;0.90;;;18.00;99.90;;;;;;1926844;73;21107;-84
2023/07/01 03:15:41;;;;;;;1.22;0.95;;;18.10;99.90;;;;;;1928822;73;21071;-84
2023/07/01 03:21:12;;;;;;;2.90;0.95;;;18.10;99.90;;;;;;1921226;72;22251;-83
2023/07/01 03:24:04;;;;;;;1.47;0.60;;;18.00;99.90;;;;;;1924771;73;21182;-85
2023/07/01 03:26:55;;;;;;;2.22;0.80;;;18.00;99.90;;;;;;1926428;73;21179;-87
2023/07/01 03:29:48;;;;;;;5.90;1.00;;;18.00;99.90;;;;;;1932510;73;21120;-85
2023/07/01 03:32:39;;;;;;;4.78;1.00;;;18.00;99.90;;;;;;1924232;73;21106;-83
2023/07/01 03:35:31;;;;;;;3.15;1.20;;;18.00;99.90;;;;;;1931907;73;21114;-84
2023/07/01 03:41:06;;;;;;;7.80;1.95;;;17.90;99.90;;;;;;1936489;72;22246;-83
2023/07/01 03:43:57;;;;;;;5.85;1.85;;;17.80;99.90;;;;;;1891322;74;21087;-85
2023/07/01 03:46:51;;;;;;;2.75;1.77;;;17.80;99.90;;;;;;1887012;75;21212;-84
2023/07/01 03:50:15;;;;;;;2.55;1.62;;;17.70;99.90;;;;;;1885208;75;21135;-86
2023/07/01 03:53:12;;;;;;;3.22;1.80;;;17.70;99.90;;;;;;1904604;75;21059;-83
2023/07/01 03:56:03;;;;;;;4.00;1.87;;;17.70;99.90;;;;;;1897873;75;21353;-86
2023/07/01 04:01:40;;;;;;;3.42;1.42;;;17.70;99.90;;;;;;1942311;72;22860;-84
2023/07/01 04:04:33;;;;;;;1.92;1.52;;;17.70;99.90;;;;;;1919458;73;21209;-84
2023/07/01 04:10:08;;;;;;;4.47;1.40;;;17.60;99.90;;;;;;1936395;72;22171;-84
2023/07/01 04:13:02;;;;;;;4.67;1.80;;;17.60;99.90;;;;;;1897288;75;21105;-84
2023/07/01 04:15:54;;;;;;;1.57;1.10;;;17.60;99.90;;;;;;1883906;75;21126;-83
2023/07/01 04:18:46;;;;;;;3.62;1.05;;;17.60;99.90;;;;;;1873065;75;21110;-83
2023/07/01 04:21:37;;;;;;;1.87;0.90;;;17.50;99.90;;;;;;1872860;75;21129;-85
2023/07/01 04:24:30;;;;;;;1.98;0.95;;;17.50;99.90;;;;;;1889292;75;21099;-83
2023/07/01 04:27:21;;;;;;;3.75;1.00;;;17.50;99.90;;;;;;1879017;75;21090;-83
2023/07/01 04:30:14;;;;;;;3.40;0.80;;;17.50;99.90;;;;;;1881052;75;21220;-84
2023/07/01 04:33:06;;;;;;;3.08;0.90;;;17.50;99.90;;;;;;1878419;75;21209;-82
2023/07/01 04:38:39;;;;;;;2.67;0.93;;;17.50;99.90;;;;;;1930297;72;22253;-86
2023/07/01 04:41:32;;;;;;;2.35;0.80;;;17.50;99.90;;;;;;1885061;75;21118;-85
2023/07/01 04:47:03;;;;;;;1.67;0.88;;;17.40;99.90;;;;;;1945247;72;22199;-84
2023/07/01 04:52:32;;;;;;;1.72;0.65;;;17.40;99.90;;;;;;1935000;72;22137;-82
2023/07/01 04:55:23;;;;;;;1.40;0.80;;;17.40;99.90;;;;;;1888893;75;21401;-84
2023/07/01 04:58:15;;;;;;;1.27;0.98;;;17.40;99.90;;;;;;1872927;75;21097;-84
2023/07/01 05:01:07;;;;;;;2.77;1.17;;;17.40;99.90;;;;;;1891682;75;21161;-84
2023/07/01 05:06:36;;;;;;;4.67;1.80;;;17.50;99.90;;;;;;1945043;72;22277;-84
2023/07/01 05:09:28;;;;;;;3.15;2.20;;;17.50;99.90;;;;;;1902322;75;21124;-84
2023/07/01 05:12:19;;;;;;;4.87;1.67;;;17.50;99.90;;;;;;1884255;75;21531;-84
2023/07/01 05:15:12;;;;;;;4.10;2.45;;;17.60;99.90;;;;;;1901246;75;21122;-84
2023/07/01 05:20:46;;;;;;;2.30;1.75;;;17.70;99.90;;;;;;1933768;72;22621;-84
2023/07/01 05:23:38;;;;;;;2.77;2.02;;;17.70;99.90;;;;;;1875043;75;21106;-85
2023/07/01 05:29:11;;;;;;;3.15;2.10;;;17.70;99.90;;;;;;1959256;72;22158;-83
2023/07/01 05:32:03;;;;;;;4.12;1.90;;;17.70;99.90;;;;;;1908007;74;21138;-82
2023/07/01 05:34:56;;;;;;;2.80;2.10;;;17.70;99.90;;;;;;1919858;74;21110;-82
2023/07/01 05:37:48;;;;;;;2.62;2.05;;;17.80;99.90;;;;;;1911337;73;21192;-81
2023/07/01 05:40:39;;;;;;;2.90;2.00;;;17.80;99.90;;;;;;1928452;73;21537;-81
2023/07/01 05:46:11;;;;;;;3.05;1.05;;;17.90;99.90;;;;;;1925140;72;22232;-81
2023/07/01 05:51:42;;;;;;;3.30;1.60;;;17.90;99.90;;;;;;1938167;72;22193;-82
2023/07/01 05:57:15;;;;;;;5.20;1.70;;;18.00;99.90;;;;;;1951606;72;22271;-83
2023/07/01 06:02:46;;;;;;;3.25;1.60;;;18.10;99.90;;;;;;1942141;72;22283;-80
2023/07/01 06:05:37;;;;;;;2.40;1.62;;;18.10;99.90;;;;;;1935580;73;21082;-82
2023/07/01 06:08:28;;;;;;;2.27;0.90;;;18.20;99.90;;;;;;1932201;73;21197;-74
2023/07/01 06:11:20;;;;;;;2.72;0.68;;;18.10;99.90;;;;;;1943794;73;21093;-73
2023/07/01 06:16:56;;;;;;;4.17;1.02;;;18.10;99.90;;;;;;1926255;72;22245;-74
2023/07/01 06:19:48;;;;;;;3.80;1.00;;;18.10;99.90;;;;;;1901027;75;21104;-72
2023/07/01 06:22:40;;;;;;;1.95;0.95;;;18.10;99.90;;;;;;1907366;75;21182;-73
2023/07/01 06:25:31;;;;;;;1.85;1.00;;;18.10;99.90;;;;;;1902370;75;21079;-72
2023/07/01 06:28:22;;;;;;;2.10;1.00;;;18.10;99.90;;;;;;1915956;74;21561;-77
2023/07/01 06:31:13;;;;;;;2.52;0.95;;;18.10;99.90;;;;;;1903710;75;21102;-78
2023/07/01 06:36:50;;;;;;;5.30;0.93;;;18.10;99.90;;;;;;1950878;72;22633;-78
2023/07/01 06:42:20;;;;;;;1.40;0.90;;;18.00;99.90;;;;;;1918923;72;22215;-77
2023/07/01 06:45:12;;;;;;;3.12;1.30;;;18.00;99.90;;;;;;1936308;73;21139;-77
2023/07/01 06:48:03;;;;;;;5.50;1.30;;;18.00;99.90;;;;;;1946112;73;21063;-78
2023/07/01 06:50:55;;;;;;;4.58;1.35;;;18.10;99.90;;;;;;1931764;73;21156;-78
2023/07/01 06:53:46;;;;;;;3.15;1.10;;;18.20;99.90;;;;;;1926921;73;21091;-77
2023/07/01 06:56:38;;;;;;;7.95;1.55;;;18.30;99.90;;;;;;1919134;73;21160;-78
2023/07/01 06:59:29;;;;;;;2.77;1.00;;;18.40;99.90;;;;;;1918573;73;21580;-78
2023/07/01 07:02:20;;;;;;;3.17;1.10;;;18.40;99.90;;;;;;1934647;73;21094;-78
2023/07/01 07:05:13;;;;;;;3.75;1.12;;;18.50;99.90;;;;;;1930545;73;21171;-78
2023/07/01 07:08:05;;;;;;;3.52;1.20;;;18.50;99.90;;;;;;1941375;73;21114;-78
2023/07/01 07:10:56;;;;;;;3.50;1.20;;;18.60;99.90;;;;;;1919306;73;21086;-78
2023/07/01 07:13:48;;;;;;;2.20;1.35;;;18.50;99.90;;;;;;1922462;73;21046;-78
2023/07/01 07:16:41;;;;;;;2.92;1.45;;;18.50;99.90;;;;;;1944670;73;21143;-78
2023/07/01 07:19:32;;;;;;;2.20;1.20;;;18.50;99.90;;;;;;1940957;73;21102;-78
2023/07/01 07:22:23;;;;;;;1.77;0.95;;;18.60;99.90;;;;;;1939996;73;21173;-78
2023/07/01 07:27:57;;;;;;;2.75;1.32;;;18.60;99.90;;;;;;1942300;72;22247;-78
2023/07/01 07:30:48;;;;;;;3.35;1.50;;;18.70;99.90;;;;;;1926277;73;21135;-77
2023/07/01 07:33:40;;;;;;;4.28;1.37;;;18.60;99.90;;;;;;1916832;75;21232;-78
2023/07/01 07:41:55;;;;;;;4.22;1.60;;;18.80;99.90;;;;;;1935447;72;28061;-79
2023/07/01 07:44:46;;;;;;;2.72;1.40;;;18.90;99.90;;;;;;1918386;73;21204;-79
2023/07/01 07:50:21;;;;;;;2.85;1.57;;;19.10;99.90;;;;;;1940751;72;22291;-79
2023/07/01 07:53:14;;;;;;;2.47;1.52;;;19.10;99.90;;;;;;1894483;75;21096;-78
2023/07/01 07:56:06;;;;;;;1.75;1.27;;;19.20;99.90;;;;;;1898565;75;21153;-78
2023/07/01 08:01:36;;;;;;;2.60;1.20;;;19.30;99.90;;;;;;1929858;72;22318;-80
2023/07/01 08:04:28;;;;;;;3.58;1.42;;;19.40;99.90;;;;;;1877603;75;21124;-80
2023/07/01 08:09:59;;;;;;;2.72;1.25;;;19.80;99.90;;;;;;1951246;72;22185;-78
2023/07/01 08:12:50;;;;;;;2.55;1.32;;;20.00;99.90;;;;;;1925346;73;21117;-78
2023/07/01 08:18:21;;;;;;;3.20;1.20;;;20.40;99.90;;;;;;1937600;72;22260;-78
2023/07/01 08:21:13;;;;;;;4.12;1.50;;;20.50;99.90;;;;;;1897525;75;21110;-79
2023/07/01 08:24:07;;;;;;;2.98;1.60;;;20.70;99.90;;;;;;1905826;75;21094;-79
2023/07/01 08:26:59;;;;;;;2.35;1.15;;;20.70;99.90;;;;;;1901846;75;21149;-79
2023/07/01 08:29:50;;;;;;;6.28;1.60;;;20.90;99.90;;;;;;1894215;75;21103;-79
2023/07/01 08:32:42;;;;;;;4.33;1.60;;;21.00;99.90;;;;;;1906072;75;21134;-79
2023/07/01 08:35:33;;;;;;;2.52;1.45;;;21.20;99.90;;;;;;1895419;75;21054;-79
2023/07/01 08:41:08;;;;;;;3.60;1.52;;;21.60;99.90;;;;;;1935525;72;23628;-78
2023/07/01 08:46:47;;;;;;;3.83;1.50;;;21.90;99.90;;;;;;1940108;72;22193;-80
2023/07/01 08:52:19;;;;;;;2.83;1.40;;;22.40;99.90;;;;;;1926332;72;22204;-80
2023/07/01 08:55:11;;;;;;;2.92;1.30;;;22.60;99.90;;;;;;1890114;74;21189;-79
2023/07/01 08:58:03;;;;;;;2.27;1.22;;;22.70;99.90;;;;;;1912909;74;21109;-80
2023/07/01 09:00:55;;;;;;;2.47;1.00;;;22.60;99.90;;;;;;1905283;75;21143;-80
2023/07/01 09:03:49;;;;;;;2.50;1.15;;;22.40;99.90;;;;;;1892978;74;21090;-79
2023/07/01 09:06:41;;;;;;;2.22;1.12;;;22.10;99.90;;;;;;1896624;75;21114;-79
2023/07/01 09:12:11;;;;;;;1.65;1.10;;;21.60;99.90;;;;;;1937972;72;22217;-79
2023/07/01 09:15:04;;;;;;;2.00;1.02;;;21.50;99.90;;;;;;1904941;75;21183;-80
2023/07/01 09:17:55;;;;;;;3.72;1.40;;;21.40;99.90;;;;;;1894693;75;21098;-79
2023/07/01 09:23:30;;;;;;;2.95;1.30;;;21.20;99.90;;;;;;1955095;72;22130;-79
2023/07/01 09:26:21;;;;;;;2.35;1.15;;;21.20;99.90;;;;;;1895272;74;21202;-80
2023/07/01 09:29:15;;;;;;;5.33;1.20;;;21.10;99.90;;;;;;1894630;75;21509;-80
2023/07/01 09:32:09;;;;;;;4.20;1.35;;;21.20;99.90;;;;;;1895891;75;21185;-79
2023/07/01 09:35:00;;;;;;;3.62;1.10;;;21.20;99.90;;;;;;1916591;75;21122;-79
2023/07/01 09:38:02;;;;;;;3.27;1.20;;;21.30;99.90;;;;;;1894677;75;21337;-79
2023/07/01 09:40:54;;;;;;;3.52;1.30;;;21.40;99.90;;;;;;1894823;75;21110;-80
2023/07/01 09:43:48;;;;;;;2.55;1.00;;;21.60;99.90;;;;;;1891977;75;21143;-80
2023/07/01 09:46:46;;;;;;;2.30;1.20;;;21.50;99.90;;;;;;1903924;75;21150;-80
2023/07/01 09:49:45;;;;;;;2.92;0.82;;;21.70;99.90;;;;;;1900430;75;21106;-80
2023/07/01 09:52:35;;;;;;;;;;;21.70;99.90;;;;;;1900842;75;21102;-78
2023/07/01 09:55:26;;;;;;;2.55;0.93;;;21.70;99.90;;;;;;1895112;75;20196;-79
2023/07/01 09:58:18;;;;;;;1.85;0.95;;;21.70;99.90;;;;;;1894436;75;21184;-80
2023/07/01 10:01:09;;;;;;;2.25;1.00;;;21.90;99.90;;;;;;1896081;75;21102;-79
2023/07/01 10:04:00;;;;;;;3.00;1.17;;;22.10;99.90;;;;;;1899734;75;21401;-80
2023/07/01 10:06:52;;;;;;;3.87;1.10;;;22.20;99.90;;;;;;1894521;75;21147;-79
2023/07/01 10:09:46;;;;;;;2.30;1.10;;;22.30;99.90;;;;;;1894321;75;21103;-79
2023/07/01 10:12:40;;;;;;;3.55;1.30;;;22.40;99.90;;;;;;1894529;75;21097;-79
2023/07/01 10:15:34;;;;;;;2.02;1.20;;;22.50;99.90;;;;;;1916705;75;21201;-79
2023/07/01 10:18:30;;;;;;;2.17;1.25;;;22.70;99.90;;;;;;1896796;75;21093;-79
2023/07/01 10:21:31;;;;;;;2.98;1.10;;;22.70;99.90;;;;;;1894572;75;21185;-79
2023/07/01 10:24:38;;;;;;;2.85;1.40;;;22.70;99.90;;;;;;1905104;74;21132;-79
2023/07/01 10:28:18;;;;;;;2.42;1.40;;;22.80;99.90;;;;;;1922010;74;21164;-79
2023/07/01 10:31:14;;;;;;;1.15;1.00;;;23.00;99.90;;;;;;1909004;74;21168;-79
2023/07/01 10:34:06;;;;;;;1.87;1.10;;;22.90;99.90;;;;;;1905104;74;21159;-79
2023/07/01 10:40:38;;;;;;;4.45;1.32;;;23.00;99.90;;;;;;1954289;72;22154;-78
2023/07/01 10:46:14;;;;;;;2.20;1.15;;;23.20;99.90;;;;;;1954740;72;22180;-79
2023/07/01 10:49:11;;;;;;;2.40;1.40;;;23.40;99.90;;;;;;1895067;74;21181;-78
2023/07/01 10:52:09;;;;;;;2.22;1.35;;;23.30;99.90;;;;;;1941143;73;21105;-79
2023/07/01 10:55:00;;;;;;;3.40;1.42;;;23.50;99.90;;;;;;1890966;75;21630;-79
2023/07/01 10:58:35;;;;;;;2.77;1.00;;;23.40;99.90;;;;;;1896839;75;21121;-79
2023/07/01 11:01:44;;;;;;;3.75;1.37;;;23.50;99.90;;;;;;1905964;75;21090;-78
2023/07/01 11:05:07;;;;;;;2.35;1.27;;;23.40;99.90;;;;;;1905823;75;21099;-77
2023/07/01 11:08:09;;;;;;;1.62;1.00;;;23.30;99.90;;;;;;1905613;75;21209;-78
2023/07/01 11:11:00;;;;;;;2.42;1.15;;;23.20;99.90;;;;;;1906313;75;21135;-78
2023/07/01 11:14:04;;;;;;;5.70;1.22;;;23.00;99.90;;;;;;1899387;75;21141;-78
2023/07/01 11:16:56;;;;;;;2.52;1.27;;;22.90;99.90;;;;;;1898838;75;21163;-77
2023/07/01 11:19:49;;;;;;;1.98;1.10;;;22.70;99.90;;;;;;1894876;75;21201;-78
2023/07/01 11:22:42;;;;;;;1.85;1.07;;;22.70;99.90;;;;;;1894616;75;21316;-77
2023/07/01 11:25:35;;;;;;;2.75;1.25;;;22.50;99.90;;;;;;1894426;75;21063;-77
2023/07/01 11:28:33;;;;;;;1.72;0.98;;;22.50;99.90;;;;;;1899449;75;21176;-77
2023/07/01 11:31:26;;;;;;;2.12;1.10;;;22.50;99.90;;;;;;1897918;75;21168;-78
2023/07/01 11:34:19;;;;;;;1.77;1.20;;;22.60;99.90;;;;;;1894788;75;21098;-77
2023/07/01 11:37:11;;;;;;;2.98;1.20;;;22.70;99.90;;;;;;1894476;75;21118;-77
2023/07/01 11:40:02;;;;;;;1.62;1.00;;;22.80;99.90;;;;;;1895528;75;21151;-77
2023/07/01 11:42:55;;;;;;;2.12;1.05;;;22.90;99.90;;;;;;1900117;75;21304;-77
2023/07/01 11:45:48;;;;;;;3.55;1.10;;;23.00;99.90;;;;;;1889657;75;21119;-77
2023/07/01 11:48:40;;;;;;;3.90;1.65;;;23.10;99.90;;;;;;1904391;75;21107;-78
2023/07/01 11:51:41;;;;;;;3.65;1.35;;;23.00;99.90;;;;;;1880941;75;21150;-77
2023/07/01 11:54:45;;;;;;;3.12;1.25;;;23.10;99.90;;;;;;1902121;75;21152;-77
2023/07/01 11:57:37;;;;;;;6.78;1.50;;;23.00;99.90;;;;;;1886710;75;21107;-78
2023/07/01 12:00:31;;;;;;;2.12;1.20;;;23.20;99.90;;;;;;1881980;75;21056;-76
2023/07/01 12:03:25;;;;;;;3.05;1.20;;;23.30;99.90;;;;;;1875921;75;21579;-77
2023/07/01 12:06:20;;;;;;;1.92;1.20;;;23.50;99.90;;;;;;1892960;75;21240;-78
2023/07/01 12:09:11;;;;;;;2.50;0.75;;;23.50;99.90;;;;;;1883241;76;21118;-78
2023/07/01 12:12:03;;;;;;;2.35;1.20;;;23.50;99.90;;;;;;1884116;75;21194;-76
2023/07/01 12:15:03;;;;;;;1.98;1.15;;;23.50;99.90;;;;;;1881891;75;21178;-76
2023/07/01 12:17:54;;;;;;;2.62;1.00;;;23.50;99.90;;;;;;1877155;75;22615;-76
2023/07/01 12:20:45;;;;;;;2.00;0.80;;;23.30;99.90;;;;;;1892259;75;21099;-77
2023/07/01 12:23:47;;;;;;;3.02;1.10;;;23.30;99.90;;;;;;1888268;75;21169;-77
2023/07/01 12:26:38;;;;;;;1.35;0.80;;;23.30;99.90;;;;;;1883713;75;21102;-77
2023/07/01 12:29:30;;;;;;;2.52;1.00;;;23.40;99.90;;;;;;1895874;75;21082;-77
2023/07/01 12:32:21;;;;;;;1.05;0.70;;;23.60;99.90;;;;;;1873087;75;21274;-77
2023/07/01 12:35:14;;;;;;;1.27;0.95;;;23.70;99.90;;;;;;1884954;75;21150;-77
2023/07/01 12:38:08;;;;;;;2.08;1.15;;;24.00;99.90;;;;;;1897052;75;21113;-77
2023/07/01 12:41:00;;;;;;;2.08;1.17;;;24.00;99.90;;;;;;1894067;75;21047;-76
2023/07/01 12:43:52;;;;;;;7.85;1.80;;;24.00;99.90;;;;;;1889355;75;21109;-76
2023/07/01 12:46:44;;;;;;;3.72;1.70;;;23.80;99.90;;;;;;1892209;74;21151;-77
2023/07/01 12:49:37;;;;;;;1.98;1.17;;;23.70;99.90;;;;;;1890880;75;21095;-76
2023/07/01 12:52:37;;;;;;;1.90;1.47;;;23.80;99.90;;;;;;1902606;75;21156;-77
2023/07/01 12:55:33;;;;;;;2.87;1.75;;;24.10;99.90;;;;;;1868274;75;21160;-77
2023/07/01 12:58:32;;;;;;;2.83;1.47;;;24.50;99.90;;;;;;1884846;75;21099;-77
2023/07/01 13:01:36;;;;;;;3.02;1.60;;;24.90;99.90;;;;;;1889561;75;21142;-77
2023/07/01 13:04:49;;;;;;;3.77;1.70;;;25.40;99.90;;;;;;1881957;75;21114;-77
2023/07/01 13:07:43;;;;;;;3.45;1.52;;;25.60;99.90;;;;;;1885936;75;21692;-77
2023/07/01 13:10:39;;;;;;;2.60;1.45;;;25.50;99.90;;;;;;1887487;74;21411;-77
2023/07/01 13:13:37;;;;;;;2.62;1.27;;;25.40;99.90;;;;;;1894224;75;21166;-77
2023/07/01 13:16:35;;;;;;;1.98;1.50;;;25.40;99.90;;;;;;1880351;75;21076;-77
2023/07/01 13:19:33;;;;;;;3.45;1.37;;;25.30;99.90;;;;;;1885344;75;21080;-77
2023/07/01 13:22:26;;;;;;;1.65;1.15;;;25.40;99.90;;;;;;1871878;75;21134;-76
2023/07/01 13:25:31;;;;;;;1.43;1.10;;;25.30;99.90;;;;;;1886920;75;21175;-76
2023/07/01 13:28:26;;;;;;;1.25;1.02;;;25.30;99.90;;;;;;1864455;76;21101;-76
2023/07/01 13:31:43;;;;;;;4.28;1.57;;;25.10;99.90;;;;;;1874759;75;21134;-76
2023/07/01 13:37:26;;;;;;;2.20;0.90;;;25.50;99.90;;;;;;1948800;72;22255;-78
2023/07/01 13:40:18;;;;;;;1.75;0.98;;;25.70;99.90;;;;;;1904855;75;21164;-78
2023/07/01 13:43:17;;;;;;;4.67;1.00;;;26.00;99.90;;;;;;1888382;73;21117;-76
2023/07/01 13:46:10;;;;;;;1.47;0.90;;;26.20;99.90;;;;;;1896622;75;21114;-76
2023/07/01 13:49:02;;;;;;;2.35;1.40;;;26.60;99.90;;;;;;1896986;75;21131;-76
2023/07/01 13:51:55;;;;;;;3.22;1.30;;;27.00;99.90;;;;;;1886027;75;21116;-76
2023/07/01 13:54:46;;;;;;;2.12;1.62;;;27.10;99.90;;;;;;1884001;75;21197;-76
2023/07/01 13:57:37;;;;;;;1.65;1.47;;;27.00;99.90;;;;;;1891383;75;21099;-76
2023/07/01 14:00:41;;;;;;;1.72;1.35;;;26.90;99.90;;;;;;1848342;76;21062;-76
2023/07/01 14:03:48;;;;;;;1.92;1.47;;;27.20;99.90;;;;;;1911342;75;21111;-76
2023/07/01 14:06:40;;;;;;;3.08;1.30;;;27.40;99.90;;;;;;1894369;75;21055;-76
2023/07/01 14:09:33;;;;;;;2.45;1.30;;;27.40;99.90;;;;;;1900541;75;21099;-77
2023/07/01 14:12:26;;;;;;;1.72;1.42;;;27.70;99.90;;;;;;1905326;75;21573;-77
2023/07/01 14:15:22;;;;;;;3.00;1.60;;;27.70;99.90;;;;;;1892897;75;21127;-77
2023/07/01 14:18:16;;;;;;;2.77;1.50;;;27.60;99.90;;;;;;1891857;75;21058;-76
2023/07/01 14:21:08;;;;;;;2.75;1.22;;;27.70;99.90;;;;;;1896399;75;21192;-76
2023/07/01 14:24:05;;;;;;;2.75;1.90;;;28.10;99.90;;;;;;1903059;75;21094;-75
2023/07/01 14:26:58;;;;;;;1.32;1.22;;;28.10;99.90;;;;;;1899172;75;21118;-76
2023/07/01 14:29:49;;;;;;;2.12;1.30;;;28.20;99.90;;;;;;1888505;75;21526;-76
2023/07/01 14:32:40;;;;;;;2.37;1.40;;;28.40;99.90;;;;;;1883854;75;21087;-77
2023/07/01 14:35:34;;;;;;;1.65;1.10;;;28.30;99.90;;;;;;1883756;76;21189;-77
2023/07/01 14:38:26;;;;;;;1.50;1.20;;;28.10;99.90;;;;;;1890969;75;21071;-76
2023/07/01 14:41:22;;;;;;;1.60;1.20;;;27.70;99.90;;;;;;1880350;75;21139;-76
2023/07/01 14:44:18;;;;;;;1.40;1.20;;;27.60;99.90;;;;;;1905832;75;21146;-76
2023/07/01 14:47:09;;;;;;;3.40;1.40;;;27.40;99.90;;;;;;1905406;75;21087;-76
2023/07/01 14:50:24;;;;;;;1.40;1.20;;;27.10;99.90;;;;;;1905238;75;21102;-76
2023/07/01 14:53:13;;;;;;;1.30;1.20;;;27.00;99.90;;;;;;1883086;76;21208;-77
2023/07/01 14:56:07;;;;;;;1.45;1.10;;;27.00;99.90;;;;;;1905446;75;21222;-76
2023/07/01 14:58:59;;;;;;;3.40;2.83;;;27.00;99.90;;;;;;1883662;75;21169;-76
2023/07/01 15:01:50;;;;;;;3.20;1.40;;;26.70;99.90;;;;;;1894534;75;21100;-76
2023/07/01 15:04:42;;;;;;;1.95;1.60;;;26.70;99.90;;;;;;1883399;75;21123;-75
2023/07/01 15:07:33;;;;;;;2.22;1.40;;;26.60;99.90;;;;;;1890934;75;21106;-76
2023/07/01 15:10:25;;;;;;;1.57;1.32;;;26.70;99.90;;;;;;1892076;75;21140;-76
2023/07/01 15:13:16;;;;;;;1.90;1.30;;;26.70;99.90;;;;;;1883393;76;21142;-75
2023/07/01 15:16:08;;;;;;;1.20;1.07;;;26.60;99.90;;;;;;1897335;75;21102;-75
2023/07/01 15:19:00;;;;;;;1.80;1.30;;;26.60;99.90;;;;;;1885537;75;21089;-76
2023/07/01 15:21:51;;;;;;;1.00;0.90;;;26.30;99.90;;;;;;1905111;75;21083;-76
2023/07/01 15:24:45;;;;;;;2.87;1.42;;;26.00;99.90;;;;;;1883382;76;21164;-76
2023/07/01 15:27:36;;;;;;;2.08;1.82;;;25.80;99.90;;;;;;1899004;75;21106;-76
2023/07/01 15:30:27;;;;;;;2.62;1.90;;;25.80;99.90;;;;;;1891948;75;21114;-76
2023/07/01 15:33:19;;;;;;;5.12;2.55;;;25.80;99.90;;;;;;1900515;75;21095;-75
2023/07/01 15:36:11;;;;;;;2.12;1.70;;;26.20;99.90;;;;;;1885582;75;21385;-75
2023/07/01 15:39:03;;;;;;;2.20;1.65;;;26.40;99.90;;;;;;1899364;74;21194;-75
2023/07/01 15:41:57;;;;;;;1.98;1.60;;;26.60;99.90;;;;;;1907471;74;21217;-76
2023/07/01 15:44:49;;;;;;;1.57;1.37;;;27.00;99.90;;;;;;1899508;74;21146;-75
2023/07/01 15:47:40;;;;;;;1.80;1.47;;;27.30;99.90;;;;;;1904760;74;21118;-75
2023/07/01 15:50:32;;;;;;;1.72;1.30;;;27.40;99.90;;;;;;1905327;74;21268;-76
2023/07/01 15:53:24;;;;;;;2.87;1.80;;;27.40;99.90;;;;;;1904990;74;21090;-75
2023/07/01 15:56:16;;;;;;;3.85;1.52;;;27.50;99.90;;;;;;1922340;74;21336;-75
2023/07/01 15:59:09;;;;;;;2.35;1.62;;;27.90;99.90;;;;;;1918297;74;21353;-76
2023/07/01 16:02:09;;;;;;;1.50;1.27;;;28.50;99.90;;;;;;1915415;74;21176;-76
2023/07/01 16:05:02;;;;;;;5.12;1.50;;;29.30;99.90;;;;;;1921606;74;21106;-75
2023/07/01 16:08:03;;;;;;;2.40;1.57;;;30.90;99.90;;;;;;1921836;74;21109;-76
2023/07/01 16:10:56;;;;;;;1.62;1.30;;;31.70;99.90;;;;;;1921831;74;21578;-76
2023/07/01 16:13:48;;;;;;;3.52;1.60;;;30.60;99.90;;;;;;1912323;74;21118;-75
2023/07/01 16:16:40;;;;;;;1.60;1.42;;;29.10;99.90;;;;;;1912931;74;21101;-75
2023/07/01 16:19:36;;;;;;;2.85;1.52;;;28.40;99.90;;;;;;1901536;74;21102;-76
2023/07/01 16:22:28;;;;;;;1.70;1.52;;;27.90;99.90;;;;;;1906262;74;21159;-75
2023/07/01 16:25:19;;;;;;;1.75;1.62;;;27.40;99.90;;;;;;1932217;74;21055;-75
2023/07/01 16:28:15;;;;;;;1.67;1.25;;;27.20;99.90;;;;;;1915491;74;21675;-75
2023/07/01 16:31:06;;;;;;;1.90;1.70;;;27.20;99.90;;;;;;1911591;74;21154;-76
2023/07/01 16:33:58;;;;;;;3.72;1.70;;;27.30;99.90;;;;;;1924966;74;21101;-75
2023/07/01 16:36:50;;;;;;;2.87;1.80;;;27.10;99.90;;;;;;1923186;74;21643;-75
2023/07/01 16:39:46;;;;;;;2.25;1.37;;;27.00;99.90;;;;;;1910009;74;21117;-75
2023/07/01 16:42:38;;;;;;;1.65;1.27;;;26.90;99.90;;;;;;1910000;74;21112;-75
2023/07/01 16:45:37;;;;;;;3.80;1.50;;;26.70;99.90;;;;;;1932505;74;21083;-75
2023/07/01 16:48:45;;;;;;;2.10;1.40;;;26.50;99.90;;;;;;1916441;74;21101;-75
2023/07/01 16:51:38;;;;;;;2.00;1.60;;;26.40;99.90;;;;;;1914281;74;21549;-75
2023/07/01 16:54:36;;;;;;;1.47;1.25;;;26.20;99.90;;;;;;1922120;74;21188;-75
2023/07/01 16:57:27;;;;;;;2.47;1.55;;;26.00;99.90;;;;;;1920985;74;21093;-75
2023/07/01 17:00:26;;;;;;;1.60;1.50;;;25.90;99.90;;;;;;1917846;74;21078;-75
2023/07/01 17:03:17;;;;;;;2.40;1.72;;;26.00;99.90;;;;;;1918283;74;21467;-76
2023/07/01 17:06:19;;;;;;;1.57;1.47;;;26.10;99.90;;;;;;1911162;74;21152;-76
2023/07/01 17:09:30;;;;;;;2.65;1.67;;;26.30;99.90;;;;;;1912925;74;21491;-76
2023/07/01 17:12:29;;;;;;;1.30;1.20;;;26.80;99.90;;;;;;1918991;74;21164;-75
2023/07/01 17:15:24;;;;;;;2.12;1.40;;;29.40;99.90;;;;;;1921289;74;21184;-76
2023/07/01 17:18:18;;;;;;;2.87;1.10;;;31.70;99.90;;;;;;1903731;74;21094;-75